Pagrindinis puslapis
METAR-TAF:

METAR-TAF

Oro uostai :

Tongatapu, Tonga

platuma: 21-14S, ilguma: 175-09W, Aukštis: 38 m

Dabartinis oras

Ataskaita buvo paskelbta 15 minutes, ne 22:00 UTC
Vėjas 10 kt iš Pietryčių
Temperatūra 28°C
Drėgmė 70%
Slėgis 1012 hPa
Matomumas 10 km arba daugiau
Mažai debesys ne aukštis 1800 ft

METAR: NFTF 202200Z 14010KT 9999 FEW018 28/22 Q1012

Laikas: 11:15 (22:15 UTC)

Prognozė

Ataskaita buvo paskelbta 4 valandos ir 53 minutes, ne 17:22 UTC
Prognozė galioja nuo 20 metu 18 UTC su 21 metu 18 UTC
Vėjas 8 kt iš Rytų
Matomumas 10 km arba daugiau
Mažai debesys ne aukštis 1800 ft
Išsisklaidę debesys ne aukštis 4000 ft

TAF: NFTF 201722Z 2018/2118 10008KT 9999 FEW018 SCT040

Orai ataskaitas ir orų prognozės (METAR, TAF).

turimą stotys yra geltonos ir raudonos taškus žemėlapyje.

Perkelti pele per norėdami pamatyti stoties vardą.

Tada spustelėkite, norėdami matyti oro stebėjimo ir prognozės.

Norėdami pakeisti žemėlapį: spustelėkite ant žalios mygtukų su juodo kryžiaus žemyn,; žalią mygtuką su brūkšneliu, jei norite nutolinti; arba žalių rodyklių gretimoms žemėlapius.


METAR-TAF: